Weather History for KGAF - February, 2014

Change the Weather History Date:

Thursday, February 27, 2014

  Actual Average (KGFK) Record (KGFK)
Temperature  
Mean Temperature -12 °F 17 °F  
Max Temperature -2 °F 26 °F 46 °F (1992)
Min Temperature -23 °F 7 °F -29 °F (2014)
Degree Days  
Heating Degree Days 78 48  
Month to date heating degree days 1435  
Since 1 July heating degree days 7101  
Cooling Degree Days 0 0  
Month to date cooling degree days 0  
Year to date cooling degree days 0  
Moisture  
Dew Point -21 °F    
Average Humidity 67    
Maximum Humidity 77    
Minimum Humidity 55    
Precipitation  
Precipitation 0.00 in 0.02 in 0.35 in (1996)
Month to date precipitation 0.49  
Year to date precipitation 1.04  
Snow  
Snow 0.00 in 0.20 in - ()
Month to date snowfall 6.3  
Since 1 July snowfall 36.9  
Snow Depth -    
Sea Level Pressure  
Sea Level Pressure 30.08 in    
Wind  
Wind Speed 8 mph (SSW)    
Max Wind Speed 18 mph    
Max Gust Speed 22 mph    
Visibility 10 miles    
Events      
T = Trace of Precipitation, MM = Missing Value Source: NWS Daily Summary

Daily Weather History Graph

Daily Weather History Graph

Search for Another Location

Airport or City:

Trip Planner

Search our weather history database for the weather conditions in past years. The results will help you decide how hot, cold, wet, or windy it might be!

Date:

Astronomy

Feb. 27, 2014 Rise Set
Actual Time 7:14 AM CST 6:10 PM CST
Civil Twilight 6:43 AM CST 6:41 PM CST
Nautical Twilight 6:07 AM CST 7:18 PM CST
Astronomical Twilight 5:30 AM CST 7:54 PM CST
Moon 5:54 AM CST (2/27) 4:33 PM CST (2/27)
Length of Visible Light 11h 58m
Length of Day
10h 55m
Waning Crescent, 4% of the Moon is Illuminated
Feb 27
Waning Crescent
Mar 1
New
Mar 8
First Quarter
Mar 16
Full
Mar 23
Last Quarter

Hourly Weather History & Observations

Time (CST) Temp. Windchill Dew Point Humidity Pressure Visibility Wind Dir Wind Speed Gust Speed Precip Events Conditions
12:15 AM -14.8 °F -29.1 °F -23.8 °F 64% 30.16 in 10.0 mi North 5.8 mph - N/A   Clear
12:35 AM -16.6 °F -32.9 °F -23.8 °F 70% 30.16 in 10.0 mi NNW 6.9 mph - N/A   Clear
12:55 AM -16.6 °F -32.9 °F -25.6 °F 64% 30.16 in 10.0 mi North 6.9 mph - N/A   Clear
1:15 AM -16.6 °F -35.7 °F -25.6 °F 64% 30.16 in 10.0 mi North 9.2 mph - N/A   Clear
1:35 AM -16.6 °F -31.3 °F -25.6 °F 64% 30.16 in 10.0 mi NNW 5.8 mph - N/A   Clear
1:55 AM -16.6 °F -31.3 °F -25.6 °F 64% 30.17 in 10.0 mi WNW 5.8 mph - N/A   Clear
2:15 AM -18.4 °F -35.1 °F -25.6 °F 70% 30.17 in 10.0 mi NW 6.9 mph - N/A   Clear
2:35 AM -16.6 °F -29.3 °F -25.6 °F 64% 30.17 in 10.0 mi WNW 4.6 mph - N/A   Clear
2:55 AM -16.6 °F -32.9 °F -25.6 °F 64% 30.18 in 10.0 mi WNW 6.9 mph - N/A   Clear
3:15 AM -18.4 °F -33.4 °F -25.6 °F 70% 30.18 in 10.0 mi NW 5.8 mph - N/A   Clear
3:35 AM -18.4 °F -36.6 °F -25.6 °F 70% 30.19 in 10.0 mi WNW 8.1 mph - N/A   Clear
3:55 AM -18.4 °F -35.1 °F -27.4 °F 63% 30.18 in 10.0 mi NW 6.9 mph - N/A   Clear
4:15 AM -18.4 °F -35.1 °F -27.4 °F 63% 30.18 in 10.0 mi NW 6.9 mph - N/A   Clear
4:35 AM -18.4 °F -33.4 °F -27.4 °F 63% 30.18 in 10.0 mi NNW 5.8 mph - N/A   Clear
4:55 AM -18.4 °F -31.4 °F -25.6 °F 70% 30.17 in 10.0 mi NNW 4.6 mph - N/A   Clear
5:15 AM -18.4 °F -35.1 °F -25.6 °F 70% 30.19 in 10.0 mi West 6.9 mph - N/A   Clear
5:35 AM -22.0 °F -42.3 °F -27.4 °F 76% 30.20 in 10.0 mi WSW 9.2 mph - N/A   Clear
5:55 AM -22.0 °F -39.4 °F -29.2 °F 69% 30.20 in 10.0 mi West 6.9 mph - N/A   Clear
6:15 AM -22.0 °F -37.7 °F -27.4 °F 76% 30.20 in 10.0 mi West 5.8 mph - N/A   Clear
6:35 AM -20.2 °F -37.3 °F -27.4 °F 69% 30.20 in 10.0 mi West 6.9 mph - N/A   Clear
6:55 AM -20.2 °F -33.5 °F -27.4 °F 69% 30.19 in 10.0 mi West 4.6 mph - N/A   Clear
7:15 AM -20.2 °F -30.9 °F -27.4 °F 69% 30.19 in 10.0 mi West 3.5 mph - N/A   Clear
7:35 AM -22.0 °F - -29.2 °F 69% 30.19 in 10.0 mi Calm Calm - N/A   Clear
7:55 AM -22.0 °F -35.6 °F -29.2 °F 69% 30.19 in 10.0 mi West 4.6 mph - N/A   Clear
8:15 AM -23.8 °F -35.0 °F -29.2 °F 76% 30.19 in 10.0 mi SW 3.5 mph - N/A   Clear
8:35 AM -22.0 °F -33.0 °F -29.2 °F 69% 30.20 in 10.0 mi WSW 3.5 mph - N/A   Clear
8:55 AM -20.2 °F -30.9 °F -27.4 °F 69% 30.19 in 10.0 mi WSW 3.5 mph - N/A   Clear
9:15 AM -18.4 °F -31.4 °F -25.6 °F 70% 30.19 in 10.0 mi SW 4.6 mph - N/A   Clear
9:35 AM -16.6 °F -29.3 °F -23.8 °F 70% 30.18 in 10.0 mi SSW 4.6 mph - N/A   Clear
9:55 AM -14.8 °F -29.1 °F -22.0 °F 70% 30.18 in 10.0 mi SSW 5.8 mph - N/A   Clear
10:15 AM -13.0 °F -25.1 °F -22.0 °F 64% 30.17 in 10.0 mi South 4.6 mph - N/A   Clear
10:35 AM -13.0 °F -27.0 °F -22.0 °F 64% 30.17 in 10.0 mi South 5.8 mph - N/A   Clear
10:55 AM -11.2 °F -26.4 °F -20.2 °F 64% 30.16 in 10.0 mi SSE 6.9 mph - N/A   Clear
11:15 AM -9.4 °F -27.9 °F -18.4 °F 65% 30.15 in 10.0 mi South 10.4 mph - N/A   Clear
11:35 AM -9.4 °F -27.9 °F -18.4 °F 65% 30.14 in 10.0 mi South 10.4 mph - N/A   Clear
11:55 AM -7.6 °F -27.5 °F -18.4 °F 59% 30.14 in 10.0 mi South 12.7 mph - N/A   Clear
12:15 PM -7.6 °F -27.5 °F -18.4 °F 59% 30.14 in 10.0 mi South 12.7 mph - N/A   Clear
12:35 PM -7.6 °F -26.6 °F -16.6 °F 65% 30.13 in 10.0 mi South 11.5 mph - N/A   Clear
12:55 PM -5.8 °F -23.4 °F -16.6 °F 60% 30.12 in 10.0 mi South 10.4 mph - N/A   Clear
1:15 PM -4.0 °F -22.1 °F -16.6 °F 55% 30.11 in 10.0 mi South 11.5 mph - N/A   Clear
1:35 PM -4.0 °F -22.1 °F -14.8 °F 60% 30.09 in 10.0 mi South 11.5 mph - N/A   Clear
1:55 PM -4.0 °F -23.0 °F -13.0 °F 65% 30.08 in 10.0 mi South 12.7 mph - N/A   Clear
2:15 PM -4.0 °F -23.0 °F -13.0 °F 65% 30.07 in 10.0 mi South 12.7 mph - N/A   Clear
2:35 PM -4.0 °F -23.0 °F -13.0 °F 65% 30.06 in 10.0 mi South 12.7 mph - N/A   Clear
2:55 PM -2.2 °F -21.5 °F -13.0 °F 60% 30.05 in 10.0 mi South 13.8 mph - N/A   Clear
3:15 PM -2.2 °F -20.7 °F -13.0 °F 60% 30.05 in 10.0 mi SSE 12.7 mph - N/A   Clear
3:35 PM -2.2 °F -22.2 °F -13.0 °F 60% 30.04 in 10.0 mi South 15.0 mph - N/A   Clear
3:55 PM -2.2 °F -22.9 °F -11.2 °F 66% 30.03 in 10.0 mi SSE 16.1 mph - N/A   Clear
4:15 PM -2.2 °F -22.9 °F -11.2 °F 66% 30.02 in 10.0 mi South 16.1 mph - N/A   Clear
4:35 PM -2.2 °F -24.1 °F -11.2 °F 66% 30.01 in 10.0 mi SSE 18.4 mph - N/A   Clear
4:55 PM -4.0 °F -25.8 °F - N/A% 30.00 in 10.0 mi SSE 17.3 mph - N/A   Clear
5:15 PM -4.0 °F -25.2 °F -13.0 °F 65% 29.99 in 10.0 mi SSE 16.1 mph - N/A   Clear
5:35 PM -4.0 °F -25.8 °F -13.0 °F 65% 29.99 in 10.0 mi SSE 17.3 mph - N/A   Clear
5:55 PM -5.8 °F -28.2 °F -13.0 °F 71% 29.98 in 10.0 mi SSE 17.3 mph - N/A   Clear
6:15 PM -7.6 °F -27.5 °F -13.0 °F 77% 29.98 in 9.0 mi SSE 12.7 mph - N/A   Clear
6:35 PM -7.6 °F -28.3 °F -14.8 °F 71% 29.97 in 10.0 mi SSE 13.8 mph - N/A   Clear
6:55 PM -9.4 °F -28.9 °F -16.6 °F 71% 29.97 in 10.0 mi SE 11.5 mph 21.9 mph N/A   Clear
7:15 PM -9.4 °F -28.9 °F -16.6 °F 71% 29.97 in 10.0 mi SSE 11.5 mph - N/A   Clear
7:35 PM -9.4 °F -27.9 °F -16.6 °F 71% 29.96 in 10.0 mi SSE 10.4 mph - N/A   Clear
7:55 PM -11.2 °F -31.1 °F -18.4 °F 70% 29.95 in 10.0 mi SSE 11.5 mph - N/A   Clear
8:15 PM -11.2 °F -31.1 °F -18.4 °F 70% 29.95 in 10.0 mi SSE 11.5 mph - N/A   Clear
8:35 PM -11.2 °F -30.1 °F -18.4 °F 70% 29.94 in 10.0 mi SSE 10.4 mph - N/A   Clear
8:55 PM -11.2 °F -31.1 °F -18.4 °F 70% 29.93 in 10.0 mi SSE 11.5 mph - N/A   Clear
9:15 PM -11.2 °F -32.1 °F -18.4 °F 70% 29.92 in 10.0 mi SSE 12.7 mph - N/A   Clear
9:35 PM -11.2 °F -31.1 °F -18.4 °F 70% 29.92 in 10.0 mi SSE 11.5 mph - N/A   Clear
9:55 PM - - - N/A% 29.92 in 10.0 mi SSE 10.4 mph - N/A   Clear
10:15 PM -11.2 °F -30.1 °F -18.4 °F 70% 29.91 in 10.0 mi SSE 10.4 mph - N/A   Clear
10:35 PM -11.2 °F -30.1 °F -18.4 °F 70% 29.92 in 10.0 mi SSE 10.4 mph - N/A   Clear
10:55 PM -11.2 °F -32.1 °F -18.4 °F 70% 29.90 in 10.0 mi SSE 12.7 mph - N/A   Clear
11:15 PM -11.2 °F -32.1 °F -18.4 °F 70% 29.89 in 10.0 mi SSE 12.7 mph - N/A   Clear
11:35 PM -9.4 °F -29.8 °F -18.4 °F 65% 29.89 in 10.0 mi SSE 12.7 mph - N/A   Partly Cloudy
11:55 PM -9.4 °F -29.8 °F -18.4 °F 65% 29.87 in 10.0 mi SSE 12.7 mph - N/A   Clear